Brady Lake, Ohio
Current Conditions -  °F | °C
As of 11:15 PM on Wednesday 28 Jan 2015 (Local Time) from KPOV Reporting Station
Broken Clouds Broken Clouds  
Wind Chill: 22°   Ceiling: 12000
Heat Index: 22°   Visibility: 10mi
Dew Point:   Wind: 3mph
Humidity: 57%   Direction: 150°SSE
Pressure: 30.23"   Gusts: NA
Location:  41.16°N, 81.32°W
Report Text: KPOV 290415Z AUTO 15003KT 10SM BKN120 M06/M13 A3023 RMK AO2 T10581132
Loading
Personal Weather Stations






























Interactive Weather Map New forecast layout! Learn more

10-Day Weather Forecast

Advertisements
Track Severe Weather on mobile